Time;durP1;ratioP1;P1;durP2;ratioP2;P2;SDS_P1;SDS_P2;PMS_P1;PMS_P2;Temp;Humidity;BMP_temperature;BMP_pressure;BME280_temperature;BME280_humidity;BME280_pressure;Samples;Min_cycle;Max_cycle;Signal;HPM_P1;HPM_P2
2022/04/14 00:00:59;;;;;;;15.35;10.60;;;;;;;;;;5013198;28;91241;-79
2022/04/14 00:03:28;;;;;;;12.75;10.60;;;;;;;;;;4990732;28;90222;-80
2022/04/14 00:05:55;;;;;;;16.77;11.57;;;;;;;;;;5000025;28;93340;-82
2022/04/14 00:08:24;;;;;;;10.75;9.02;;;;;;;;;;4959867;28;92229;-82
2022/04/14 00:10:54;;;;;;;11.45;9.80;;;;;;;;;;4962282;28;90275;-80
2022/04/14 00:13:21;;;;;;;9.55;8.15;;;;;;;;;;4964673;28;90545;-82
2022/04/14 00:15:48;;;;;;;12.32;9.13;;;;;;;;;;4981039;28;89587;-82
2022/04/14 00:18:14;;;;;;;11.05;8.82;;;;;;;;;;4948351;28;90655;-78
2022/04/14 00:20:43;;;;;;;10.73;8.52;;;;;;;;;;4983952;28;90742;-79
2022/04/14 00:23:10;;;;;;;10.77;8.48;;;;;;;;;;4980885;28;89188;-80
2022/04/14 00:25:42;;;;;;;9.95;8.55;;;;;;;;;;4949373;28;90876;-81
2022/04/14 00:28:09;;;;;;;13.63;10.35;;;;;;;;;;4965093;28;88812;-80
2022/04/14 00:30:36;;;;;;;10.40;9.40;;;;;;;;;;4963439;28;90054;-82
2022/04/14 00:33:02;;;;;;;13.60;10.45;;;;;;;;;;4980053;28;93563;-81
2022/04/14 00:35:30;;;;;;;18.05;11.23;;;;;;;;;;4963019;28;90968;-79
2022/04/14 00:37:56;;;;;;;14.40;11.13;;;;;;;;;;4979284;28;91168;-79
2022/04/14 00:40:23;;;;;;;13.75;11.18;;;;;;;;;;4979680;28;93437;-80
2022/04/14 00:42:49;;;;;;;13.77;11.25;;;;;;;;;;4985251;28;92289;-79
2022/04/14 00:45:15;;;;;;;15.70;12.32;;;;;;;;;;4982292;28;93093;-80
2022/04/14 00:47:43;;;;;;;12.85;11.50;;;;;;;;;;5016599;28;90613;-82
2022/04/14 00:50:10;;;;;;;17.67;12.27;;;;;;;;;;5007124;28;90616;-80
2022/04/14 00:52:42;;;;;;;13.15;11.40;;;;;;;;;;5040875;28;91237;-80
2022/04/14 00:55:08;;;;;;;;;;;;;;;;;;5007202;28;92215;-79
2022/04/14 00:57:35;;;;;;;17.95;11.55;;;;;;;;;;5024644;28;93687;-80
2022/04/14 01:00:02;;;;;;;13.75;10.80;;;;;;;;;;5023334;28;90683;-81
2022/04/14 01:02:29;;;;;;;12.63;10.63;;;;;;;;;;5006646;28;92995;-82
2022/04/14 01:04:59;;;;;;;14.15;11.43;;;;;;;;;;5026882;28;88885;-81
2022/04/14 01:07:28;;;;;;;12.27;10.45;;;;;;;;;;5023188;28;92580;-80
2022/04/14 01:09:56;;;;;;;13.25;11.25;;;;;;;;;;5023242;28;89658;-82
2022/04/14 01:12:23;;;;;;;13.25;10.77;;;;;;;;;;5040281;28;91500;-80
2022/04/14 01:14:51;;;;;;;11.93;10.68;;;;;;;;;;5022270;28;91046;-81
2022/04/14 01:17:18;;;;;;;12.30;10.73;;;;;;;;;;5023214;28;89449;-79
2022/04/14 01:19:44;;;;;;;13.75;10.30;;;;;;;;;;5023068;28;93118;-80
2022/04/14 01:22:20;;;;;;;12.55;10.52;;;;;;;;;;5006282;28;92022;-79
2022/04/14 01:24:47;;;;;;;12.25;10.30;;;;;;;;;;5025450;28;90780;-82
2022/04/14 01:27:13;;;;;;;13.50;10.60;;;;;;;;;;5022963;28;91796;-81
2022/04/14 01:29:40;;;;;;;11.38;9.85;;;;;;;;;;5006417;28;90181;-81
2022/04/14 01:32:07;;;;;;;10.63;9.52;;;;;;;;;;5024115;28;92893;-81
2022/04/14 01:34:34;;;;;;;12.00;9.32;;;;;;;;;;5007711;28;90485;-79
2022/04/14 01:37:01;;;;;;;12.15;9.55;;;;;;;;;;5007636;28;90175;-79
2022/04/14 01:39:29;;;;;;;12.32;9.95;;;;;;;;;;5024082;28;88961;-80
2022/04/14 01:41:56;;;;;;;14.52;11.18;;;;;;;;;;5007785;28;90236;-81
2022/04/14 01:44:22;;;;;;;13.98;10.90;;;;;;;;;;5022971;28;89022;-78
2022/04/14 01:46:48;;;;;;;15.60;11.32;;;;;;;;;;5025403;28;93133;-79
2022/04/14 01:49:16;;;;;;;13.93;11.75;;;;;;;;;;5006046;28;89888;-82
2022/04/14 01:51:42;;;;;;;16.40;11.70;;;;;;;;;;5022786;28;90108;-81
2022/04/14 01:54:09;;;;;;;16.02;12.90;;;;;;;;;;5005301;28;92221;-78
2022/04/14 01:56:37;;;;;;;16.33;13.02;;;;;;;;;;5005658;28;90211;-79
2022/04/14 01:59:03;;;;;;;15.98;13.30;;;;;;;;;;5022585;28;93394;-79
2022/04/14 02:01:30;;;;;;;20.77;15.50;;;;;;;;;;5005606;28;93511;-82
2022/04/14 02:03:58;;;;;;;24.00;14.93;;;;;;;;;;5005600;28;90215;-81
2022/04/14 02:06:25;;;;;;;17.67;14.13;;;;;;;;;;5005522;28;92899;-77
2022/04/14 02:08:54;;;;;;;27.33;16.70;;;;;;;;;;5025324;28;92319;-81
2022/04/14 02:11:21;;;;;;;25.88;18.60;;;;;;;;;;5005623;28;93347;-80
2022/04/14 02:13:47;;;;;;;32.15;21.00;;;;;;;;;;5005452;28;92211;-77
2022/04/14 02:16:13;;;;;;;29.88;19.90;;;;;;;;;;5005541;28;90400;-79
2022/04/14 02:18:40;;;;;;;33.55;22.45;;;;;;;;;;5021786;28;93430;-83
2022/04/14 02:21:07;;;;;;;38.03;22.60;;;;;;;;;;5021744;28;92264;-82
2022/04/14 02:23:33;;;;;;;33.55;22.50;;;;;;;;;;5005315;28;90266;-82
2022/04/14 02:26:00;;;;;;;36.85;24.60;;;;;;;;;;5005055;27;92959;-79
2022/04/14 02:28:26;;;;;;;45.67;24.80;;;;;;;;;;5005089;28;92831;-81
2022/04/14 02:30:53;;;;;;;44.92;26.48;;;;;;;;;;5024736;28;89594;-78
2022/04/14 02:33:19;;;;;;;40.10;25.45;;;;;;;;;;5021880;28;90741;-79
2022/04/14 02:35:46;;;;;;;47.67;26.65;;;;;;;;;;5021161;28;90131;-82
2022/04/14 02:38:13;;;;;;;40.33;24.33;;;;;;;;;;5005547;28;93490;-81
2022/04/14 02:40:39;;;;;;;38.78;25.17;;;;;;;;;;5021514;28;92722;-79
2022/04/14 02:43:06;;;;;;;44.95;26.50;;;;;;;;;;5005268;28;90225;-79
2022/04/14 02:45:32;;;;;;;39.97;26.88;;;;;;;;;;5021593;28;93241;-79
2022/04/14 02:47:59;;;;;;;40.92;26.13;;;;;;;;;;5005206;28;93294;-77
2022/04/14 02:50:26;;;;;;;42.95;26.88;;;;;;;;;;5021315;28;90057;-80
2022/04/14 02:52:54;;;;;;;44.40;28.17;;;;;;;;;;5007587;28;92881;-79
2022/04/14 02:55:21;;;;;;;46.30;28.58;;;;;;;;;;5005205;28;90582;-81
2022/04/14 02:57:50;;;;;;;48.88;30.23;;;;;;;;;;5021696;28;93545;-80
2022/04/14 03:00:17;;;;;;;39.47;26.58;;;;;;;;;;5004494;28;90120;-79
2022/04/14 03:02:43;;;;;;;44.13;28.85;;;;;;;;;;5004573;28;90706;-81
2022/04/14 03:05:10;;;;;;;42.85;26.20;;;;;;;;;;5038766;28;91167;-79
2022/04/14 03:07:37;;;;;;;42.63;26.92;;;;;;;;;;5004273;28;92126;-77
2022/04/14 03:10:04;;;;;;;42.47;26.80;;;;;;;;;;5020744;28;92476;-80
2022/04/14 03:12:41;;;;;;;47.08;27.00;;;;;;;;;;5004313;28;92985;-81
2022/04/14 03:15:08;;;;;;;41.90;26.25;;;;;;;;;;5007332;28;91670;-79
2022/04/14 03:17:34;;;;;;;38.30;24.92;;;;;;;;;;5017731;28;93017;-80
2022/04/14 03:20:02;;;;;;;43.50;25.77;;;;;;;;;;5021240;28;89679;-78
2022/04/14 03:22:33;;;;;;;38.28;24.48;;;;;;;;;;5020826;28;92191;-80
2022/04/14 03:25:03;;;;;;;39.15;24.25;;;;;;;;;;5020806;28;93585;-80
2022/04/14 03:27:30;;;;;;;36.08;23.05;;;;;;;;;;5021413;28;89580;-78
2022/04/14 03:29:56;;;;;;;35.97;23.90;;;;;;;;;;5020251;28;91693;-79
2022/04/14 03:32:24;;;;;;;40.33;24.20;;;;;;;;;;4995902;28;92401;-80
2022/04/14 03:34:51;;;;;;;34.17;22.55;;;;;;;;;;4999184;28;90548;-80
2022/04/14 03:37:17;;;;;;;34.90;22.15;;;;;;;;;;4996332;28;92783;-82
2022/04/14 03:39:44;;;;;;;36.33;22.10;;;;;;;;;;4999346;28;89000;-80
2022/04/14 03:42:11;;;;;;;37.90;22.25;;;;;;;;;;4983101;28;90347;-79
2022/04/14 03:44:37;;;;;;;31.90;21.02;;;;;;;;;;4983206;28;93102;-77
2022/04/14 03:47:03;;;;;;;33.45;21.50;;;;;;;;;;4982854;28;92094;-81
2022/04/14 03:49:30;;;;;;;34.95;22.73;;;;;;;;;;5000225;28;89042;-80
2022/04/14 03:51:56;;;;;;;29.48;20.85;;;;;;;;;;4999653;28;90156;-81
2022/04/14 03:54:23;;;;;;;36.05;22.90;;;;;;;;;;4999491;28;91970;-80
2022/04/14 03:56:49;;;;;;;39.88;23.25;;;;;;;;;;4985907;28;91467;-78
2022/04/14 03:59:16;;;;;;;31.15;21.30;;;;;;;;;;4983833;28;90527;-80
2022/04/14 04:01:42;;;;;;;31.75;20.20;;;;;;;;;;4983091;28;90365;-77
2022/04/14 04:04:09;;;;;;;33.08;21.83;;;;;;;;;;5020259;28;89933;-77
2022/04/14 04:06:35;;;;;;;28.98;19.88;;;;;;;;;;5044390;28;89130;-80
2022/04/14 04:09:02;;;;;;;32.83;20.60;;;;;;;;;;5026615;28;89906;-78
2022/04/14 04:11:28;;;;;;;27.80;18.70;;;;;;;;;;5027284;28;90077;-78
2022/04/14 04:13:54;;;;;;;26.80;19.77;;;;;;;;;;5043557;28;89682;-78
2022/04/14 04:16:21;;;;;;;28.77;19.60;;;;;;;;;;5026602;28;89023;-78
2022/04/14 04:18:47;;;;;;;27.30;18.45;;;;;;;;;;5047457;28;89870;-77
2022/04/14 04:21:14;;;;;;;24.00;18.55;;;;;;;;;;5045862;28;89712;-78
2022/04/14 04:23:40;;;;;;;27.52;19.63;;;;;;;;;;5042857;28;90033;-78
2022/04/14 04:26:07;;;;;;;26.77;19.42;;;;;;;;;;5042085;28;89050;-77
2022/04/14 04:28:33;;;;;;;25.70;18.90;;;;;;;;;;5042335;28;88804;-78
2022/04/14 04:30:59;;;;;;;29.02;19.17;;;;;;;;;;5041990;28;89860;-79
2022/04/14 04:33:26;;;;;;;26.20;19.23;;;;;;;;;;5041262;28;90042;-77
2022/04/14 04:35:52;;;;;;;28.30;19.25;;;;;;;;;;5023840;28;89505;-78
2022/04/14 04:38:20;;;;;;;28.02;18.58;;;;;;;;;;5041524;28;89631;-78
2022/04/14 04:40:46;;;;;;;32.10;19.52;;;;;;;;;;5044595;28;89416;-77
2022/04/14 04:43:15;;;;;;;37.83;23.48;;;;;;;;;;5041182;28;88923;-78
2022/04/14 04:45:42;;;;;;;33.55;21.25;;;;;;;;;;5040986;28;90637;-79
2022/04/14 04:48:09;;;;;;;36.33;23.17;;;;;;;;;;5040127;28;89399;-77
2022/04/14 04:50:35;;;;;;;34.45;21.98;;;;;;;;;;5040973;27;89352;-76
2022/04/14 04:53:01;;;;;;;38.53;22.58;;;;;;;;;;5040138;28;89766;-78
2022/04/14 04:55:28;;;;;;;35.15;23.35;;;;;;;;;;5040631;28;89244;-78
2022/04/14 04:57:55;;;;;;;38.67;24.25;;;;;;;;;;5040412;28;91439;-78
2022/04/14 05:00:22;;;;;;;40.75;24.42;;;;;;;;;;5040813;28;89918;-79
2022/04/14 05:02:48;;;;;;;39.85;24.65;;;;;;;;;;5025469;28;90152;-79
2022/04/14 05:05:15;;;;;;;36.55;25.08;;;;;;;;;;5041032;28;89739;-77
2022/04/14 05:07:41;;;;;;;40.33;25.08;;;;;;;;;;5040735;28;89706;-76
2022/04/14 05:10:07;;;;;;;36.70;23.60;;;;;;;;;;5040606;28;90461;-77
2022/04/14 05:12:34;;;;;;;41.00;24.13;;;;;;;;;;5040361;28;88997;-78
2022/04/14 05:15:00;;;;;;;42.70;24.73;;;;;;;;;;5040364;28;90916;-79
2022/04/14 05:17:27;;;;;;;39.78;24.85;;;;;;;;;;5022368;28;91583;-77
2022/04/14 05:19:53;;;;;;;35.55;23.50;;;;;;;;;;5040468;28;89994;-79
2022/04/14 05:22:19;;;;;;;39.92;25.50;;;;;;;;;;5039852;28;89989;-77
2022/04/14 05:24:46;;;;;;;39.63;25.60;;;;;;;;;;5042731;28;88912;-77
2022/04/14 05:27:12;;;;;;;43.90;27.95;;;;;;;;;;5040449;28;89310;-77
2022/04/14 05:29:40;;;;;;;44.60;28.92;;;;;;;;;;5039993;28;89380;-77
2022/04/14 05:32:07;;;;;;;48.95;29.20;;;;;;;;;;5038702;28;90075;-77
2022/04/14 05:34:33;;;;;;;42.72;28.67;;;;;;;;;;5040415;28;88794;-77
2022/04/14 05:36:59;;;;;;;43.03;27.63;;;;;;;;;;5040024;28;89820;-77
2022/04/14 05:39:26;;;;;;;45.00;28.55;;;;;;;;;;5037555;28;89704;-76
2022/04/14 05:41:52;;;;;;;46.17;29.48;;;;;;;;;;5040194;28;89444;-77
2022/04/14 05:44:19;;;;;;;44.65;28.42;;;;;;;;;;5043322;28;90041;-78
2022/04/14 05:46:45;;;;;;;37.08;25.40;;;;;;;;;;5040403;28;88836;-77
2022/04/14 05:49:11;;;;;;;38.55;25.92;;;;;;;;;;5039913;28;91377;-77
2022/04/14 05:51:38;;;;;;;35.85;24.55;;;;;;;;;;5038986;28;89671;-77
2022/04/14 05:54:04;;;;;;;35.05;23.70;;;;;;;;;;5040027;28;88801;-77
2022/04/14 05:56:30;;;;;;;31.58;22.10;;;;;;;;;;5039954;28;90199;-77
2022/04/14 05:58:57;;;;;;;30.05;22.08;;;;;;;;;;5039878;28;89254;-77
2022/04/14 06:01:25;;;;;;;46.67;23.08;;;;;;;;;;5038844;27;89815;-76
2022/04/14 06:03:51;;;;;;;34.17;23.63;;;;;;;;;;5039882;28;90174;-77
2022/04/14 06:06:18;;;;;;;33.28;23.13;;;;;;;;;;5042376;28;90463;-77
2022/04/14 06:08:45;;;;;;;39.17;23.45;;;;;;;;;;5036844;28;90810;-77
2022/04/14 06:11:11;;;;;;;32.53;23.98;;;;;;;;;;5039648;28;89483;-78
2022/04/14 06:13:38;;;;;;;31.83;23.33;;;;;;;;;;5036860;28;88921;-78
2022/04/14 06:16:04;;;;;;;29.40;22.10;;;;;;;;;;5039806;28;89405;-77
2022/04/14 06:18:31;;;;;;;26.60;22.83;;;;;;;;;;5039686;28;90415;-79
2022/04/14 06:20:57;;;;;;;30.55;22.60;;;;;;;;;;5021501;28;89594;-78
2022/04/14 06:23:23;;;;;;;31.05;22.15;;;;;;;;;;5039480;28;90357;-79
2022/04/14 06:25:50;;;;;;;25.63;22.52;;;;;;;;;;5039079;28;89851;-79
2022/04/14 06:28:17;;;;;;;26.67;21.27;;;;;;;;;;5042352;28;89495;-75
2022/04/14 06:30:46;;;;;;;25.55;21.55;;;;;;;;;;5039186;28;91140;-74
2022/04/14 06:33:13;;;;;;;23.38;20.58;;;;;;;;;;5039061;28;88946;-75
2022/04/14 06:35:39;;;;;;;27.83;21.23;;;;;;;;;;5039205;28;89309;-74
2022/04/14 06:38:06;;;;;;;24.98;20.83;;;;;;;;;;5039311;28;89359;-75
2022/04/14 06:40:32;;;;;;;25.30;21.52;;;;;;;;;;5021454;28;89042;-75
2022/04/14 06:43:00;;;;;;;26.00;20.50;;;;;;;;;;5039572;28;89973;-80
2022/04/14 06:45:28;;;;;;;23.10;19.88;;;;;;;;;;5039330;28;89872;-76
2022/04/14 06:47:54;;;;;;;23.25;20.70;;;;;;;;;;5039171;28;88968;-76
2022/04/14 06:50:22;;;;;;;27.50;20.13;;;;;;;;;;5042150;28;89626;-75
2022/04/14 06:52:49;;;;;;;23.50;19.75;;;;;;;;;;5039028;28;89038;-75
2022/04/14 06:55:16;;;;;;;27.25;19.42;;;;;;;;;;5020877;28;93618;-74
2022/04/14 06:57:42;;;;;;;23.98;18.98;;;;;;;;;;5039120;28;89227;-75
2022/04/14 07:00:09;;;;;;;23.48;19.25;;;;;;;;;;5021300;28;90391;-75
2022/04/14 07:02:44;;;;;;;32.35;21.55;;;;;;;;;;5035623;28;89754;-75
2022/04/14 07:05:10;;;;;;;46.90;26.33;;;;;;;;;;5020678;28;90641;-76
2022/04/14 07:07:37;;;;;;;47.03;31.20;;;;;;;;;;5039300;28;88826;-77
2022/04/14 07:10:03;;;;;;;51.92;31.13;;;;;;;;;;5038759;28;90218;-75
2022/04/14 07:12:30;;;;;;;59.58;33.85;;;;;;;;;;5041513;27;90434;-74
2022/04/14 07:14:56;;;;;;;54.10;30.67;;;;;;;;;;5041304;28;90010;-75
2022/04/14 07:17:22;;;;;;;41.92;25.67;;;;;;;;;;5042417;28;90245;-75
2022/04/14 07:19:50;;;;;;;31.55;20.50;;;;;;;;;;5042615;28;89028;-77
2022/04/14 07:22:18;;;;;;;27.23;16.88;;;;;;;;;;5042376;28;90161;-79
2022/04/14 07:24:48;;;;;;;21.30;16.50;;;;;;;;;;5042428;28;89105;-77
2022/04/14 07:27:19;;;;;;;22.52;16.33;;;;;;;;;;5042376;28;89277;-77
2022/04/14 07:29:46;;;;;;;25.83;17.23;;;;;;;;;;5042215;28;89882;-76
2022/04/14 07:32:13;;;;;;;23.33;16.40;;;;;;;;;;5045458;28;89883;-76
2022/04/14 07:34:40;;;;;;;20.63;15.57;;;;;;;;;;5042321;28;90342;-77
2022/04/14 07:37:06;;;;;;;18.38;15.10;;;;;;;;;;5042061;28;89921;-77
2022/04/14 07:39:33;;;;;;;19.35;14.95;;;;;;;;;;5041934;28;89753;-77
2022/04/14 07:41:59;;;;;;;20.70;15.30;;;;;;;;;;5041752;28;90396;-77
2022/04/14 07:44:25;;;;;;;21.40;14.90;;;;;;;;;;5041817;28;89427;-77
2022/04/14 07:46:52;;;;;;;20.50;14.68;;;;;;;;;;5041949;28;89365;-77
2022/04/14 07:49:18;;;;;;;19.85;14.05;;;;;;;;;;5040703;27;90359;-76
2022/04/14 07:51:44;;;;;;;19.48;14.13;;;;;;;;;;5040994;27;89195;-76
2022/04/14 07:54:11;;;;;;;19.80;14.55;;;;;;;;;;5044183;27;89994;-75
2022/04/14 07:56:37;;;;;;;18.90;14.77;;;;;;;;;;5040031;27;89879;-76
2022/04/14 07:59:03;;;;;;;17.92;14.60;;;;;;;;;;5043537;27;88901;-76
2022/04/14 08:01:30;;;;;;;21.23;15.57;;;;;;;;;;5040674;27;91456;-75
2022/04/14 08:03:56;;;;;;;16.55;14.75;;;;;;;;;;5040858;27;89961;-75
2022/04/14 08:06:25;;;;;;;21.17;15.50;;;;;;;;;;5044045;27;89550;-75
2022/04/14 08:08:51;;;;;;;22.73;15.73;;;;;;;;;;5041126;27;90319;-76
2022/04/14 08:11:18;;;;;;;18.80;15.63;;;;;;;;;;5040635;27;89956;-75
2022/04/14 08:13:44;;;;;;;18.30;15.18;;;;;;;;;;5041015;27;89117;-75
2022/04/14 08:16:11;;;;;;;23.52;16.42;;;;;;;;;;5028674;27;93713;-75
2022/04/14 08:18:38;;;;;;;19.45;14.50;;;;;;;;;;5040780;27;89435;-75
2022/04/14 08:21:05;;;;;;;19.70;13.55;;;;;;;;;;5023387;27;90445;-75
2022/04/14 08:23:32;;;;;;;18.67;14.20;;;;;;;;;;5022497;27;91330;-76
2022/04/14 08:26:01;;;;;;;17.83;14.50;;;;;;;;;;5043108;27;88995;-76
2022/04/14 08:28:43;;;;;;;16.55;13.57;;;;;;;;;;5040380;27;90709;-77
2022/04/14 08:31:10;;;;;;;17.52;12.90;;;;;;;;;;5036529;27;89955;-76
2022/04/14 08:33:37;;;;;;;14.73;12.07;;;;;;;;;;5042765;27;89015;-76
2022/04/14 08:36:05;;;;;;;20.38;11.13;;;;;;;;;;5040031;27;90098;-75
2022/04/14 08:38:31;;;;;;;15.52;12.23;;;;;;;;;;5043217;27;89827;-77
2022/04/14 08:41:03;;;;;;;19.70;11.90;;;;;;;;;;5040415;27;91657;-75
2022/04/14 08:43:48;;;;;;;19.45;11.50;;;;;;;;;;5038567;27;90029;-77
2022/04/14 08:46:15;;;;;;;17.00;11.50;;;;;;;;;;5040175;27;90502;-78
2022/04/14 08:48:42;;;;;;;16.20;11.48;;;;;;;;;;5022439;28;92520;-78
2022/04/14 08:51:14;;;;;;;13.13;11.25;;;;;;;;;;5040126;27;89666;-78
2022/04/14 08:53:41;;;;;;;21.40;12.23;;;;;;;;;;5039539;27;89401;-76
2022/04/14 08:56:07;;;;;;;18.25;12.60;;;;;;;;;;5039815;27;90430;-77
2022/04/14 08:58:35;;;;;;;16.42;12.20;;;;;;;;;;5040057;27;90383;-77
2022/04/14 09:01:01;;;;;;;14.50;11.02;;;;;;;;;;5039769;27;89020;-77
2022/04/14 09:03:47;;;;;;;13.60;10.27;;;;;;;;;;5023785;27;89263;-78
2022/04/14 09:06:14;;;;;;;20.92;13.10;;;;;;;;;;5022142;28;90276;-79
2022/04/14 09:08:40;;;;;;;17.38;13.05;;;;;;;;;;5040664;28;90504;-76
2022/04/14 09:11:08;;;;;;;19.75;13.05;;;;;;;;;;5040821;28;89778;-76
2022/04/14 09:13:37;;;;;;;15.63;12.52;;;;;;;;;;5040666;28;89182;-73
2022/04/14 09:16:03;;;;;;;22.00;14.27;;;;;;;;;;5040196;28;90197;-78
2022/04/14 09:18:32;;;;;;;17.95;13.32;;;;;;;;;;5040113;28;90093;-77
2022/04/14 09:21:02;;;;;;;18.73;13.15;;;;;;;;;;5040425;28;89144;-76
2022/04/14 09:23:31;;;;;;;16.42;13.05;;;;;;;;;;5009900;28;89252;-75
2022/04/14 09:26:13;;;;;;;16.02;12.80;;;;;;;;;;5040028;28;89657;-79
2022/04/14 09:28:40;;;;;;;16.75;11.55;;;;;;;;;;5022491;28;90823;-78
2022/04/14 09:31:08;;;;;;;16.90;11.73;;;;;;;;;;5040248;28;89429;-78
2022/04/14 09:33:36;;;;;;;17.05;11.10;;;;;;;;;;5022948;28;88923;-79
2022/04/14 09:36:23;;;;;;;12.38;10.45;;;;;;;;;;5039646;28;89581;-79
2022/04/14 09:38:50;;;;;;;11.27;9.75;;;;;;;;;;5039987;28;89290;-77
2022/04/14 09:41:33;;;;;;;11.55;9.70;;;;;;;;;;5041266;28;88815;-77
2022/04/14 09:44:05;;;;;;;10.20;9.23;;;;;;;;;;5043408;28;88589;-77
2022/04/14 09:46:32;;;;;;;9.38;8.48;;;;;;;;;;5041125;28;89098;-78
2022/04/14 09:49:00;;;;;;;12.95;7.60;;;;;;;;;;5040805;28;87858;-78
2022/04/14 09:51:27;;;;;;;9.73;8.65;;;;;;;;;;5040811;28;88531;-82
2022/04/14 09:54:01;;;;;;;12.98;9.57;;;;;;;;;;5040859;28;88587;-79
2022/04/14 09:56:40;;;;;;;13.45;8.63;;;;;;;;;;5040926;28;87897;-76
2022/04/14 09:59:07;;;;;;;7.65;6.68;;;;;;;;;;5040803;28;89410;-77
2022/04/14 10:01:35;;;;;;;8.20;5.63;;;;;;;;;;5023876;28;87728;-79
2022/04/14 10:04:03;;;;;;;10.95;5.65;;;;;;;;;;5040273;28;89199;-76
2022/04/14 10:06:30;;;;;;;6.55;5.65;;;;;;;;;;5043829;28;88525;-77
2022/04/14 10:08:57;;;;;;;7.65;5.68;;;;;;;;;;5040415;28;88436;-76
2022/04/14 10:11:32;;;;;;;7.90;5.47;;;;;;;;;;5040861;28;89225;-78
2022/04/14 10:14:10;;;;;;;9.95;6.45;;;;;;;;;;5040758;28;88750;-77
2022/04/14 10:16:37;;;;;;;7.78;6.25;;;;;;;;;;5040141;28;88058;-79
2022/04/14 10:19:05;;;;;;;8.57;6.25;;;;;;;;;;5040662;28;88348;-79
2022/04/14 10:21:34;;;;;;;10.95;5.85;;;;;;;;;;5040590;28;88575;-77
2022/04/14 10:24:01;;;;;;;6.90;4.93;;;;;;;;;;5040429;28;88658;-77
2022/04/14 10:26:28;;;;;;;7.00;5.32;;;;;;;;;;5041166;28;88262;-76
2022/04/14 10:28:55;;;;;;;6.55;5.32;;;;;;;;;;5043320;28;88784;-76
2022/04/14 10:31:21;;;;;;;7.30;5.68;;;;;;;;;;5022660;28;89601;-75
2022/04/14 10:33:48;;;;;;;5.15;4.70;;;;;;;;;;5039945;28;88773;-75
2022/04/14 10:36:15;;;;;;;7.55;4.70;;;;;;;;;;5039901;28;88999;-77
2022/04/14 10:38:44;;;;;;;5.72;4.28;;;;;;;;;;5040263;28;88915;-76
2022/04/14 10:41:14;;;;;;;5.20;4.05;;;;;;;;;;5040283;28;89590;-76
2022/04/14 10:43:41;;;;;;;4.00;3.53;;;;;;;;;;5039869;28;88470;-76
2022/04/14 10:46:07;;;;;;;3.83;3.42;;;;;;;;;;5040167;28;89542;-75
2022/04/14 10:48:35;;;;;;;3.55;3.20;;;;;;;;;;5039932;28;88907;-75
2022/04/14 10:51:20;;;;;;;4.43;3.65;;;;;;;;;;5043122;28;88910;-77
2022/04/14 10:53:47;;;;;;;4.63;3.40;;;;;;;;;;5039719;28;89162;-77
2022/04/14 10:56:40;;;;;;;3.22;2.92;;;;;;;;;;5039637;28;88356;-77
2022/04/14 10:59:09;;;;;;;3.65;2.50;;;;;;;;;;5017943;28;89614;-74
2022/04/14 11:01:50;;;;;;;3.65;3.17;;;;;;;;;;5040021;28;89865;-81
2022/04/14 11:04:35;;;;;;;3.10;2.80;;;;;;;;;;5043652;28;87770;-80
2022/04/14 11:07:11;;;;;;;7.10;3.10;;;;;;;;;;5025637;28;91172;-77
2022/04/14 11:09:38;;;;;;;5.80;2.88;;;;;;;;;;5047339;28;88574;-77
2022/04/14 11:12:27;;;;;;;3.40;3.05;;;;;;;;;;5045807;28;88766;-78
2022/04/14 11:14:57;;;;;;;4.03;2.72;;;;;;;;;;5029017;28;87837;-77
2022/04/14 11:17:37;;;;;;;3.95;3.10;;;;;;;;;;5023324;28;87998;-78
2022/04/14 11:20:13;;;;;;;7.85;3.88;;;;;;;;;;5042335;28;87796;-78
2022/04/14 11:22:57;;;;;;;40.63;33.33;;;;;;;;;;5041699;28;88727;-78
2022/04/14 11:25:43;;;;;;;10.90;4.10;;;;;;;;;;5039625;28;89930;-78
2022/04/14 11:28:25;;;;;;;3.63;3.10;;;;;;;;;;5022297;28;92882;-78
2022/04/14 11:30:59;;;;;;;3.42;2.58;;;;;;;;;;5039882;28;88659;-77
2022/04/14 11:33:31;;;;;;;5.60;3.47;;;;;;;;;;5039839;28;87945;-81
2022/04/14 11:36:10;;;;;;;9.98;3.90;;;;;;;;;;5039598;28;88908;-82
2022/04/14 11:38:53;;;;;;;27.25;3.10;;;;;;;;;;5026541;28;88610;-78
2022/04/14 11:41:36;;;;;;;56.13;4.47;;;;;;;;;;5022146;28;88462;-79
2022/04/14 11:44:05;;;;;;;12.20;3.30;;;;;;;;;;5040122;28;87179;-79
2022/04/14 11:46:32;;;;;;;2.40;2.20;;;;;;;;;;5003514;28;88323;-80
2022/04/14 11:48:59;;;;;;;2.70;2.50;;;;;;;;;;5039320;28;88777;-79
2022/04/14 11:51:27;;;;;;;201.02;10.23;;;;;;;;;;5039349;28;90728;-79
2022/04/14 11:53:55;;;;;;;4.00;3.70;;;;;;;;;;5004252;28;89450;-81
2022/04/14 11:56:42;;;;;;;11.77;4.07;;;;;;;;;;5039219;28;88418;-79
2022/04/14 11:59:09;;;;;;;10.13;4.30;;;;;;;;;;5042400;27;89724;-78
2022/04/14 12:01:47;;;;;;;4.40;3.95;;;;;;;;;;5024847;28;89890;-79
2022/04/14 12:04:14;;;;;;;4.68;4.28;;;;;;;;;;5042820;28;88442;-78
2022/04/14 12:06:49;;;;;;;6.60;5.95;;;;;;;;;;5024660;28;88769;-78
2022/04/14 12:09:20;;;;;;;169.25;27.80;;;;;;;;;;5008498;28;91402;-79
2022/04/14 12:11:49;;;;;;;10.70;4.72;;;;;;;;;;5023684;28;89771;-80
2022/04/14 12:14:16;;;;;;;338.92;15.80;;;;;;;;;;5024914;28;93143;-80
2022/04/14 12:16:47;;;;;;;27.85;5.80;;;;;;;;;;5023221;28;92217;-80
2022/04/14 12:19:13;;;;;;;35.07;6.50;;;;;;;;;;5008284;28;90106;-80
2022/04/14 12:21:40;;;;;;;5.47;4.95;;;;;;;;;;5026960;28;92141;-85
2022/04/14 12:24:06;;;;;;;51.08;5.78;;;;;;;;;;5024473;28;91440;-83
2022/04/14 12:26:37;;;;;;;5.80;5.30;;;;;;;;;;5007744;28;92154;-82
2022/04/14 12:29:08;;;;;;;6.55;5.72;;;;;;;;;;5024409;28;91336;-81
2022/04/14 12:31:35;;;;;;;6.25;5.68;;;;;;;;;;4979491;28;88556;-81
2022/04/14 12:34:01;;;;;;;9.07;6.35;;;;;;;;;;4964401;28;87370;-80
2022/04/14 12:36:47;;;;;;;6.47;5.88;;;;;;;;;;4980387;28;88083;-78
2022/04/14 12:39:21;;;;;;;8.38;4.80;;;;;;;;;;4979970;28;89286;-77
2022/04/14 12:41:48;;;;;;;8.88;8.05;;;;;;;;;;4979885;28;88718;-77
2022/04/14 12:44:20;;;;;;;302.77;18.55;;;;;;;;;;4983160;28;90274;-80
2022/04/14 12:46:48;;;;;;;329.45;19.17;;;;;;;;;;4978887;28;89069;-79
2022/04/14 12:49:19;;;;;;;176.38;14.98;;;;;;;;;;4998440;28;89016;-79
2022/04/14 12:51:54;;;;;;;33.00;10.18;;;;;;;;;;5041391;28;89503;-78
2022/04/14 12:57:38;;;;;;;17.98;10.50;;;;;;;;;;4979909;28;91117;-84
2022/04/14 13:00:09;;;;;;;21.27;10.50;;;;;;;;;;5008263;28;90362;-81
2022/04/14 13:02:37;;;;;;;21.30;11.23;;;;;;;;;;5001723;28;91014;-77
2022/04/14 13:05:08;;;;;;;57.58;12.85;;;;;;;;;;5018511;28;89325;-78
2022/04/14 13:07:51;;;;;;;49.90;11.90;;;;;;;;;;5021601;28;90136;-80
2022/04/14 13:10:24;;;;;;;107.60;15.48;;;;;;;;;;5001923;28;90731;-81
2022/04/14 13:12:50;;;;;;;15.70;14.13;;;;;;;;;;5019143;28;88795;-78
2022/04/14 13:15:18;;;;;;;14.45;11.10;;;;;;;;;;5018745;28;89551;-78
2022/04/14 13:17:45;;;;;;;12.80;10.88;;;;;;;;;;5018668;28;89191;-80
2022/04/14 13:20:12;;;;;;;81.13;11.07;;;;;;;;;;5017884;28;89466;-78
2022/04/14 13:22:39;;;;;;;29.20;8.90;;;;;;;;;;5018551;28;90327;-79
2022/04/14 13:25:06;;;;;;;34.72;8.77;;;;;;;;;;5019790;28;89305;-78
2022/04/14 13:27:33;;;;;;;9.85;8.75;;;;;;;;;;5019401;28;89057;-78
2022/04/14 13:30:00;;;;;;;11.70;8.60;;;;;;;;;;5022334;28;88643;-77
2022/04/14 13:32:27;;;;;;;14.35;8.40;;;;;;;;;;5040535;28;91075;-78
2022/04/14 13:34:54;;;;;;;9.35;7.50;;;;;;;;;;5041002;28;88373;-76
2022/04/14 13:37:21;;;;;;;16.67;8.20;;;;;;;;;;5041217;28;89112;-75
2022/04/14 13:39:47;;;;;;;9.80;7.18;;;;;;;;;;5041140;28;88354;-77
2022/04/14 13:42:14;;;;;;;7.75;6.78;;;;;;;;;;5041405;28;88418;-76
2022/04/14 13:44:43;;;;;;;12.38;6.35;;;;;;;;;;5041298;28;88920;-77
2022/04/14 13:47:10;;;;;;;15.30;5.90;;;;;;;;;;5022988;28;91361;-79
2022/04/14 13:49:37;;;;;;;13.82;5.88;;;;;;;;;;5041775;28;86994;-76
2022/04/14 13:52:04;;;;;;;6.97;6.03;;;;;;;;;;5043650;28;88336;-77
2022/04/14 13:54:31;;;;;;;7.53;5.55;;;;;;;;;;5041136;28;87893;-75
2022/04/14 13:56:57;;;;;;;6.63;5.40;;;;;;;;;;5040577;28;89036;-71
2022/04/14 13:59:23;;;;;;;5.82;5.30;;;;;;;;;;5040954;28;89170;-74
2022/04/14 14:01:50;;;;;;;10.27;6.07;;;;;;;;;;5040682;28;88456;-72
2022/04/14 14:04:17;;;;;;;8.65;5.50;;;;;;;;;;5040801;28;90478;-72
2022/04/14 14:06:43;;;;;;;7.32;5.32;;;;;;;;;;5040682;28;89273;-73
2022/04/14 14:09:09;;;;;;;8.18;5.90;;;;;;;;;;5040841;28;88461;-74
2022/04/14 14:11:37;;;;;;;6.55;5.95;;;;;;;;;;5043893;28;89157;-80
2022/04/14 14:14:04;;;;;;;9.07;5.68;;;;;;;;;;5041575;28;87430;-81
2022/04/14 14:16:31;;;;;;;8.80;6.18;;;;;;;;;;5006283;28;90739;-79
2022/04/14 14:18:57;;;;;;;7.35;6.70;;;;;;;;;;5022733;28;91225;-82
2022/04/14 14:21:24;;;;;;;7.45;6.75;;;;;;;;;;5040625;28;88598;-79
2022/04/14 14:23:50;;;;;;;10.25;6.95;;;;;;;;;;5005928;28;90850;-79
2022/04/14 14:26:23;;;;;;;8.88;7.63;;;;;;;;;;5041692;28;88802;-83
2022/04/14 14:29:14;;;;;;;9.95;8.30;;;;;;;;;;5026578;28;88128;-82
2022/04/14 14:31:45;;;;;;;8.02;7.38;;;;;;;;;;5027235;28;88399;-78
2022/04/14 14:34:13;;;;;;;9.25;7.65;;;;;;;;;;5027766;28;91647;-79